Time;durP1;ratioP1;P1;durP2;ratioP2;P2;SDS_P1;SDS_P2;PMS_P1;PMS_P2;Temp;Humidity;BMP_temperature;BMP_pressure;BME280_temperature;BME280_humidity;BME280_pressure;Samples;Min_cycle;Max_cycle;Signal;HPM_P1;HPM_P2
2022/09/01 00:01:53;;;;;;;2.63;1.20;;;21.20;67.90;;;;;;4973119;28;20582;-72
2022/09/01 00:04:25;;;;;;;2.00;1.30;;;21.20;68.40;;;;;;4939882;28;20579;-72
2022/09/01 00:06:53;;;;;;;1.87;1.23;;;21.10;68.20;;;;;;4973361;28;20989;-72
2022/09/01 00:09:21;;;;;;;1.70;1.00;;;21.10;68.20;;;;;;4972863;28;20602;-72
2022/09/01 00:11:51;;;;;;;1.83;1.30;;;21.10;68.50;;;;;;4973035;28;20570;-72
2022/09/01 00:14:22;;;;;;;4.63;1.30;;;21.00;68.70;;;;;;4972992;28;21199;-71
2022/09/01 00:16:47;;;;;;;3.30;1.10;;;21.00;69.00;;;;;;4973240;28;20575;-71
2022/09/01 00:19:13;;;;;;;1.73;1.07;;;20.90;69.00;;;;;;4972617;28;20607;-72
2022/09/01 00:21:42;;;;;;;1.97;1.20;;;20.90;69.50;;;;;;4973046;28;20537;-72
2022/09/01 00:24:09;;;;;;;2.83;1.07;;;20.90;69.60;;;;;;4955748;28;20182;-72
2022/09/01 00:26:34;;;;;;;3.13;1.03;;;20.80;70.60;;;;;;4972956;28;20623;-72
2022/09/01 00:29:00;;;;;;;4.00;1.03;;;20.80;70.00;;;;;;4955456;28;20919;-72
2022/09/01 00:31:27;;;;;;;2.03;1.00;;;20.80;70.20;;;;;;4972490;28;20175;-72
2022/09/01 00:33:53;;;;;;;2.80;1.13;;;20.90;71.00;;;;;;4955677;28;20579;-72
2022/09/01 00:36:19;;;;;;;4.43;0.93;;;20.90;70.90;;;;;;4955331;28;20822;-72
2022/09/01 00:38:45;;;;;;;4.90;1.00;;;20.90;71.00;;;;;;4949109;28;20219;-72
2022/09/01 00:41:12;;;;;;;2.83;1.00;;;20.90;71.00;;;;;;4946885;28;20575;-71
2022/09/01 00:43:48;;;;;;;1.57;0.87;;;21.00;71.20;;;;;;4953762;28;20582;-72
2022/09/01 00:46:17;;;;;;;1.50;0.90;;;21.00;71.40;;;;;;4954598;28;20750;-72
2022/09/01 00:48:44;;;;;;;2.03;1.00;;;21.00;71.00;;;;;;4963822;28;21152;-72
2022/09/01 00:51:12;;;;;;;2.07;1.00;;;21.00;71.00;;;;;;4947578;28;20591;-72
2022/09/01 00:53:39;;;;;;;1.50;0.80;;;21.00;71.00;;;;;;4945700;28;20599;-72
2022/09/01 00:56:06;;;;;;;2.60;0.90;;;21.00;71.00;;;;;;4943896;28;20644;-72
2022/09/01 00:58:34;;;;;;;1.80;0.90;;;20.90;71.00;;;;;;4946609;29;21205;-72
2022/09/01 01:01:01;;;;;;;2.00;0.80;;;20.90;71.00;;;;;;4970601;28;20595;-72
2022/09/01 01:03:29;;;;;;;2.50;1.13;;;20.90;71.20;;;;;;4969672;28;20611;-72
2022/09/01 01:06:00;;;;;;;2.33;0.90;;;20.80;71.30;;;;;;4968862;28;20597;-72
2022/09/01 01:08:34;;;;;;;1.67;0.90;;;20.80;71.40;;;;;;4957948;28;20682;-72
2022/09/01 01:11:05;;;;;;;2.20;1.00;;;20.70;71.60;;;;;;4947428;28;20685;-72
2022/09/01 01:13:47;;;;;;;2.43;1.13;;;20.70;72.20;;;;;;4972422;28;21192;-73
2022/09/01 01:16:14;;;;;;;1.73;1.00;;;20.70;72.70;;;;;;4955115;28;21250;-73
2022/09/01 01:18:41;;;;;;;2.23;0.90;;;20.70;72.50;;;;;;4972346;28;20649;-73
2022/09/01 01:24:21;;;;;;;1.50;0.93;;;20.60;72.70;;;;;;4955006;28;20638;-73
2022/09/01 01:26:47;;;;;;;3.10;0.80;;;20.60;72.80;;;;;;4955182;28;20671;-73
2022/09/01 01:29:14;;;;;;;2.20;0.90;;;20.60;73.00;;;;;;4954481;28;20971;-73
2022/09/01 01:31:40;;;;;;;1.87;1.00;;;20.60;73.00;;;;;;4938847;28;20579;-73
2022/09/01 01:34:06;;;;;;;1.60;0.97;;;20.60;73.60;;;;;;4954848;28;20932;-74
2022/09/01 01:36:36;;;;;;;3.70;0.90;;;20.50;73.60;;;;;;4939110;28;20638;-73
2022/09/01 01:39:11;;;;;;;1.63;0.90;;;20.50;73.70;;;;;;4954760;28;21176;-71
2022/09/01 01:41:41;;;;;;;1.70;0.90;;;20.50;75.00;;;;;;4971940;28;20948;-72
2022/09/01 01:44:08;;;;;;;1.70;1.00;;;20.50;74.30;;;;;;4955006;28;20583;-73
2022/09/01 01:46:36;;;;;;;1.70;0.77;;;20.50;74.50;;;;;;4938982;28;20678;-72
2022/09/01 01:49:03;;;;;;;1.60;1.00;;;20.50;74.50;;;;;;4970788;28;20602;-72
2022/09/01 01:51:31;;;;;;;1.93;1.00;;;20.50;74.80;;;;;;4954393;28;21024;-73
2022/09/01 01:54:04;;;;;;;1.30;0.80;;;20.50;75.10;;;;;;4938577;28;21215;-72
2022/09/01 01:56:32;;;;;;;1.97;0.80;;;20.50;75.50;;;;;;4954777;28;20728;-72
2022/09/01 01:59:00;;;;;;;1.73;0.80;;;20.40;75.50;;;;;;4956170;28;21355;-73
2022/09/01 02:01:30;;;;;;;2.23;1.10;;;20.40;76.40;;;;;;4957707;28;20658;-72
2022/09/01 02:03:58;;;;;;;1.93;0.90;;;20.40;76.00;;;;;;4958006;28;20987;-72
2022/09/01 02:06:26;;;;;;;1.60;0.90;;;20.40;75.90;;;;;;4942131;28;20642;-73
2022/09/01 02:08:57;;;;;;;3.30;1.10;;;20.50;76.20;;;;;;4958175;28;20699;-72
2022/09/01 02:11:26;;;;;;;1.60;1.00;;;20.40;77.00;;;;;;4941866;28;20609;-72
2022/09/01 02:13:56;;;;;;;1.70;1.00;;;20.40;77.00;;;;;;4958261;28;20579;-72
2022/09/01 02:16:23;;;;;;;2.77;0.80;;;20.40;77.80;;;;;;4958007;28;21037;-72
2022/09/01 02:18:50;;;;;;;3.30;1.00;;;20.40;76.50;;;;;;4941864;28;20615;-72
2022/09/01 02:21:19;;;;;;;1.60;0.80;;;20.40;76.70;;;;;;4957567;28;20969;-72
2022/09/01 02:23:48;;;;;;;3.60;0.80;;;20.40;76.70;;;;;;4975328;28;20569;-72
2022/09/01 02:26:15;;;;;;;1.80;0.80;;;20.40;76.70;;;;;;4957917;28;20586;-72
2022/09/01 02:28:44;;;;;;;1.40;0.90;;;20.30;76.80;;;;;;4974892;28;20677;-72
2022/09/01 02:31:10;;;;;;;3.60;0.80;;;20.30;76.90;;;;;;4957587;28;20582;-72
2022/09/01 02:33:38;;;;;;;1.50;0.70;;;20.30;77.40;;;;;;4974908;28;20603;-72
2022/09/01 02:36:13;;;;;;;1.93;0.97;;;20.30;77.40;;;;;;4957609;28;20786;-72
2022/09/01 02:38:44;;;;;;;1.70;0.90;;;20.30;77.50;;;;;;4941583;28;20611;-72
2022/09/01 02:41:13;;;;;;;1.90;0.90;;;20.30;77.40;;;;;;4957231;28;20607;-73
2022/09/01 02:43:42;;;;;;;1.60;0.90;;;20.30;77.60;;;;;;4941500;28;20583;-73
2022/09/01 02:46:08;;;;;;;2.27;0.90;;;20.30;77.70;;;;;;4957578;28;20606;-73
2022/09/01 02:48:38;;;;;;;1.73;0.80;;;20.30;78.10;;;;;;4941469;28;20622;-72
2022/09/01 02:51:07;;;;;;;2.33;0.80;;;20.30;78.10;;;;;;4957247;28;20575;-73
2022/09/01 02:53:34;;;;;;;1.40;0.70;;;20.20;78.00;;;;;;4973345;28;20579;-72
2022/09/01 02:56:02;;;;;;;1.50;0.80;;;20.20;78.10;;;;;;4941062;28;20642;-72
2022/09/01 02:58:31;;;;;;;1.60;0.83;;;20.20;78.70;;;;;;4957216;28;20611;-73
2022/09/01 03:00:58;;;;;;;4.00;0.90;;;20.20;78.40;;;;;;4921234;29;20612;-72
2022/09/01 03:03:24;;;;;;;1.60;1.33;;;20.20;79.60;;;;;;4937845;29;20691;-71
2022/09/01 03:05:55;;;;;;;1.37;0.70;;;20.20;79.50;;;;;;4937963;29;21173;-72
2022/09/01 03:08:23;;;;;;;1.60;1.00;;;20.20;78.90;;;;;;4937945;29;21187;-72
2022/09/01 03:10:52;;;;;;;1.70;0.90;;;20.20;79.00;;;;;;4937016;29;21374;-72
2022/09/01 03:13:22;;;;;;;3.97;0.90;;;20.20;79.10;;;;;;4954892;28;20576;-72
2022/09/01 03:15:49;;;;;;;1.50;0.70;;;20.20;79.10;;;;;;4954855;29;20583;-72
2022/09/01 03:18:17;;;;;;;1.40;0.70;;;20.20;79.10;;;;;;4937708;29;20603;-72
2022/09/01 03:20:45;;;;;;;1.40;0.70;;;20.30;79.50;;;;;;4954640;29;20667;-72
2022/09/01 03:23:14;;;;;;;1.50;0.80;;;20.30;79.30;;;;;;4954710;29;21025;-72
2022/09/01 03:25:42;;;;;;;1.70;0.80;;;20.20;79.40;;;;;;4937459;29;20591;-73
2022/09/01 03:28:11;;;;;;;1.33;0.70;;;20.20;79.70;;;;;;4954494;29;20672;-73
2022/09/01 03:30:42;;;;;;;1.90;0.80;;;20.30;79.60;;;;;;4937177;29;20590;-73
2022/09/01 03:33:08;;;;;;;2.17;1.00;;;20.20;79.60;;;;;;4954412;29;20764;-73
2022/09/01 03:35:35;;;;;;;2.43;0.83;;;20.20;79.60;;;;;;4921261;29;20678;-72
2022/09/01 03:38:02;;;;;;;3.57;0.90;;;20.20;79.60;;;;;;4937183;29;20616;-72
2022/09/01 03:40:35;;;;;;;1.57;0.93;;;20.20;79.80;;;;;;4953930;29;20723;-72
2022/09/01 03:43:03;;;;;;;2.23;0.83;;;20.20;80.10;;;;;;4937067;29;20587;-72
2022/09/01 03:45:34;;;;;;;2.13;0.80;;;20.20;80.00;;;;;;4937231;29;20575;-73
2022/09/01 03:48:05;;;;;;;1.70;0.67;;;20.10;80.50;;;;;;4921235;29;20630;-73
2022/09/01 03:50:31;;;;;;;1.40;0.70;;;20.10;80.30;;;;;;4936791;29;20599;-72
2022/09/01 03:52:59;;;;;;;1.40;0.70;;;20.00;80.40;;;;;;4936876;29;20588;-73
2022/09/01 03:55:30;;;;;;;3.53;0.90;;;20.00;80.60;;;;;;4937173;29;20571;-73
2022/09/01 03:57:59;;;;;;;1.67;0.87;;;20.00;80.80;;;;;;4936917;28;21049;-72
2022/09/01 04:00:28;;;;;;;1.80;0.87;;;19.90;80.70;;;;;;4953841;28;20568;-73
2022/09/01 04:02:57;;;;;;;2.37;0.80;;;19.90;81.20;;;;;;4936710;29;20583;-72
2022/09/01 04:05:30;;;;;;;3.77;0.70;;;19.80;81.10;;;;;;4921073;29;21124;-71
2022/09/01 04:08:02;;;;;;;2.37;0.80;;;19.80;81.30;;;;;;4936710;29;20576;-72
2022/09/01 04:10:33;;;;;;;1.70;0.87;;;19.70;81.80;;;;;;4920650;29;20672;-72
2022/09/01 04:13:00;;;;;;;2.53;0.80;;;19.70;81.80;;;;;;4920863;29;20880;-72
2022/09/01 04:15:27;;;;;;;1.60;1.10;;;19.60;81.80;;;;;;4936613;29;20576;-72
2022/09/01 04:18:08;;;;;;;2.13;1.00;;;19.60;82.00;;;;;;4936484;29;20619;-73
2022/09/01 04:20:46;;;;;;;1.77;0.70;;;19.60;82.30;;;;;;4936507;29;20575;-73
2022/09/01 04:23:28;;;;;;;4.40;0.90;;;19.50;82.70;;;;;;4952734;28;20582;-73
2022/09/01 04:25:59;;;;;;;2.80;0.90;;;19.50;83.20;;;;;;4936587;29;20567;-72
2022/09/01 04:28:32;;;;;;;1.53;0.70;;;19.50;83.70;;;;;;4946143;23;20671;-71
2022/09/01 04:30:59;;;;;;;2.43;0.80;;;19.40;83.90;;;;;;4983434;28;21181;-73
2022/09/01 04:33:35;;;;;;;1.87;0.90;;;19.40;83.70;;;;;;4987808;28;20583;-74
2022/09/01 04:36:03;;;;;;;3.20;0.80;;;19.40;84.50;;;;;;4964641;28;20630;-74
2022/09/01 04:38:29;;;;;;;1.53;1.00;;;19.40;84.60;;;;;;4982589;28;20587;-74
2022/09/01 04:40:59;;;;;;;1.93;0.90;;;19.40;84.70;;;;;;4963510;28;20598;-74
2022/09/01 04:43:25;;;;;;;1.40;0.80;;;19.40;85.20;;;;;;4959301;28;20591;-74
2022/09/01 04:45:52;;;;;;;2.57;0.80;;;19.40;85.30;;;;;;4972994;28;20608;-75
2022/09/01 04:48:19;;;;;;;1.50;0.70;;;19.40;85.20;;;;;;4977697;28;20576;-74
2022/09/01 04:50:48;;;;;;;2.63;1.27;;;19.30;85.30;;;;;;4977749;28;20562;-74
2022/09/01 04:53:23;;;;;;;1.70;0.97;;;19.30;85.40;;;;;;4977990;28;20565;-75
2022/09/01 04:55:53;;;;;;;1.60;0.87;;;19.30;86.00;;;;;;4994652;28;20565;-74
2022/09/01 04:58:20;;;;;;;2.90;0.90;;;19.30;86.80;;;;;;4977699;28;20593;-74
2022/09/01 05:00:50;;;;;;;1.90;0.93;;;19.20;86.00;;;;;;5011246;28;20608;-76
2022/09/01 05:03:22;;;;;;;2.20;0.90;;;19.20;86.40;;;;;;4978104;28;20566;-75
2022/09/01 05:06:16;;;;;;;1.60;0.87;;;19.20;86.70;;;;;;4983173;28;20588;-75
2022/09/01 05:08:48;;;;;;;2.00;0.80;;;19.20;87.00;;;;;;4994062;28;21161;-75
2022/09/01 05:11:26;;;;;;;1.70;0.90;;;19.30;87.20;;;;;;4993421;28;20586;-73
2022/09/01 05:14:02;;;;;;;1.90;0.90;;;19.30;87.40;;;;;;4993796;28;20935;-72
2022/09/01 05:16:28;;;;;;;2.27;1.13;;;19.30;87.50;;;;;;4993805;28;20613;-72
2022/09/01 05:18:56;;;;;;;2.27;0.90;;;19.30;87.80;;;;;;4993613;28;20962;-72
2022/09/01 05:21:25;;;;;;;3.87;1.07;;;19.30;88.90;;;;;;4993315;28;20648;-75
2022/09/01 05:23:53;;;;;;;2.00;1.07;;;19.30;88.50;;;;;;4993541;28;20576;-75
2022/09/01 05:26:25;;;;;;;2.90;0.80;;;19.30;88.80;;;;;;4993118;28;20569;-75
2022/09/01 05:28:54;;;;;;;1.70;0.90;;;19.40;88.80;;;;;;4991974;28;20656;-74
2022/09/01 05:31:21;;;;;;;2.00;0.80;;;19.40;89.00;;;;;;4990545;28;20603;-75
2022/09/01 05:33:49;;;;;;;1.97;0.90;;;19.40;89.10;;;;;;4984869;28;20626;-75
2022/09/01 05:36:18;;;;;;;1.60;0.70;;;19.50;89.70;;;;;;4989404;28;20612;-75
2022/09/01 05:38:46;;;;;;;1.50;0.80;;;19.50;89.50;;;;;;4997370;28;20597;-75
2022/09/01 05:41:14;;;;;;;1.30;0.70;;;19.50;89.70;;;;;;4998804;28;20569;-75
2022/09/01 05:43:45;;;;;;;1.60;0.80;;;19.50;89.80;;;;;;4997443;28;20615;-75
2022/09/01 05:46:17;;;;;;;1.50;0.80;;;19.60;89.90;;;;;;4981077;28;20569;-77
2022/09/01 05:48:44;;;;;;;2.40;0.90;;;19.70;90.00;;;;;;4997387;28;20660;-75
2022/09/01 05:51:16;;;;;;;1.87;0.70;;;19.80;90.10;;;;;;4996782;28;20557;-75
2022/09/01 05:53:43;;;;;;;2.50;0.90;;;19.70;90.00;;;;;;4997336;28;21074;-76
2022/09/01 05:56:12;;;;;;;2.50;1.00;;;19.80;90.00;;;;;;4997129;28;20601;-76
2022/09/01 05:58:39;;;;;;;2.03;0.93;;;19.90;90.10;;;;;;4996998;28;20629;-76
2022/09/01 06:01:06;;;;;;;2.90;0.90;;;19.90;90.20;;;;;;4990048;28;20765;-76
2022/09/01 06:03:32;;;;;;;6.20;1.00;;;20.00;90.20;;;;;;4989127;28;20585;-76
2022/09/01 06:06:04;;;;;;;2.23;1.10;;;20.00;90.30;;;;;;4997049;28;21122;-77
2022/09/01 06:08:30;;;;;;;2.80;1.27;;;20.00;90.30;;;;;;4997492;28;20573;-76
2022/09/01 06:10:56;;;;;;;3.00;1.00;;;20.10;90.40;;;;;;4996900;28;20647;-76
2022/09/01 06:13:22;;;;;;;1.90;0.90;;;20.20;90.50;;;;;;4997448;28;20578;-77
2022/09/01 06:15:49;;;;;;;2.27;1.10;;;20.20;90.40;;;;;;4997612;28;20607;-77
2022/09/01 06:18:20;;;;;;;2.13;1.00;;;20.30;90.50;;;;;;4997937;28;20578;-75
2022/09/01 06:20:54;;;;;;;2.10;1.00;;;20.30;90.40;;;;;;4998127;28;21046;-76
2022/09/01 06:23:20;;;;;;;3.07;1.23;;;20.40;90.40;;;;;;4997128;28;20573;-77
2022/09/01 06:25:46;;;;;;;2.27;0.90;;;20.50;90.40;;;;;;5013921;28;20566;-75
2022/09/01 06:28:21;;;;;;;2.00;0.90;;;20.50;90.30;;;;;;5010797;28;20589;-75
2022/09/01 06:30:49;;;;;;;2.23;0.97;;;20.60;90.40;;;;;;4982101;28;20616;-75
2022/09/01 06:33:16;;;;;;;2.60;0.80;;;20.70;90.40;;;;;;4989092;28;20655;-76
2022/09/01 06:35:46;;;;;;;2.17;0.90;;;20.80;90.40;;;;;;5005490;28;20929;-74
2022/09/01 06:38:16;;;;;;;2.70;1.20;;;21.10;90.60;;;;;;4996613;28;20664;-75
2022/09/01 06:40:45;;;;;;;3.17;1.03;;;21.70;90.90;;;;;;4996442;28;20615;-75
2022/09/01 06:43:15;;;;;;;2.13;0.90;;;22.60;91.40;;;;;;4996185;28;20589;-76
2022/09/01 06:45:53;;;;;;;1.50;0.67;;;23.50;91.40;;;;;;4981452;28;20578;-75
2022/09/01 06:48:22;;;;;;;2.23;0.80;;;24.60;91.10;;;;;;4975986;28;20586;-73
2022/09/01 06:50:50;;;;;;;1.70;0.60;;;25.70;90.70;;;;;;4976024;28;20589;-74
2022/09/01 06:53:17;;;;;;;1.87;0.70;;;26.70;89.30;;;;;;4976572;28;21009;-75
2022/09/01 06:55:48;;;;;;;2.13;0.80;;;27.60;84.40;;;;;;4978027;28;20594;-75
2022/09/01 06:58:14;;;;;;;2.13;0.70;;;28.30;75.30;;;;;;4976573;28;20590;-76
2022/09/01 07:00:48;;;;;;;1.70;0.80;;;29.00;75.20;;;;;;4977016;28;20682;-75
2022/09/01 07:03:15;;;;;;;1.83;0.90;;;29.60;70.00;;;;;;4960559;28;20621;-76
2022/09/01 07:05:55;;;;;;;5.30;1.67;;;30.00;69.40;;;;;;4976398;28;20688;-76
2022/09/01 07:08:48;;;;;;;1.87;0.83;;;30.70;65.70;;;;;;4979081;28;20981;-76
2022/09/01 07:11:32;;;;;;;1.90;0.70;;;31.20;62.60;;;;;;4975893;28;20576;-76
2022/09/01 07:14:04;;;;;;;2.20;1.20;;;31.70;56.60;;;;;;4993764;28;20699;-77
2022/09/01 07:16:39;;;;;;;1.60;0.70;;;32.20;56.40;;;;;;4976109;28;20617;-77
2022/09/01 07:19:11;;;;;;;2.53;0.70;;;32.50;56.20;;;;;;4976343;28;20619;-76
2022/09/01 07:21:42;;;;;;;2.43;0.73;;;32.70;54.50;;;;;;4960391;28;20658;-76
2022/09/01 07:24:11;;;;;;;1.60;0.60;;;33.10;53.50;;;;;;4959441;28;20573;-77
2022/09/01 07:26:40;;;;;;;1.40;0.70;;;33.30;52.80;;;;;;4988717;28;21008;-77
2022/09/01 07:29:08;;;;;;;2.20;0.60;;;33.60;52.20;;;;;;4986732;28;20802;-76
2022/09/01 07:31:39;;;;;;;2.20;0.90;;;34.10;52.00;;;;;;5013370;28;20593;-77
2022/09/01 07:34:09;;;;;;;1.60;0.70;;;34.50;49.20;;;;;;4995521;28;20924;-77
2022/09/01 07:36:36;;;;;;;1.50;0.73;;;34.70;49.20;;;;;;4995131;28;20576;-76
2022/09/01 07:39:03;;;;;;;1.50;0.70;;;35.10;48.40;;;;;;4995393;28;20760;-76
2022/09/01 07:41:30;;;;;;;1.33;0.53;;;35.20;46.80;;;;;;5012806;28;20982;-77
2022/09/01 07:44:14;;;;;;;1.60;0.63;;;35.40;46.90;;;;;;5013055;28;20573;-76
2022/09/01 07:46:59;;;;;;;1.60;0.70;;;35.90;47.00;;;;;;4997776;28;20655;-77
2022/09/01 07:49:26;;;;;;;1.80;0.70;;;36.10;45.70;;;;;;4995013;28;21059;-76
2022/09/01 07:51:54;;;;;;;2.30;0.70;;;36.10;44.20;;;;;;4995765;28;20584;-76
2022/09/01 07:54:22;;;;;;;1.67;0.60;;;35.90;43.00;;;;;;5012970;28;20580;-75
2022/09/01 07:56:49;;;;;;;1.63;0.60;;;35.70;42.80;;;;;;4994812;28;20616;-75
2022/09/01 07:59:17;;;;;;;2.33;0.70;;;35.90;43.00;;;;;;4994863;28;20672;-75
2022/09/01 08:02:00;;;;;;;1.50;0.60;;;36.20;43.40;;;;;;4984085;28;20628;-76
2022/09/01 08:04:27;;;;;;;1.70;0.80;;;36.70;43.50;;;;;;4974703;28;21109;-76
2022/09/01 08:06:56;;;;;;;2.53;0.60;;;37.10;42.80;;;;;;4973820;28;21050;-76
2022/09/01 08:09:22;;;;;;;1.30;0.63;;;37.50;41.90;;;;;;4978021;28;20624;-77
2022/09/01 08:11:48;;;;;;;2.50;0.70;;;37.90;41.90;;;;;;4981939;28;20594;-77
2022/09/01 08:14:14;;;;;;;1.50;0.70;;;38.40;41.10;;;;;;4994953;28;20592;-77
2022/09/01 08:16:40;;;;;;;1.50;0.70;;;38.60;40.20;;;;;;4978912;28;20672;-77
2022/09/01 08:19:08;;;;;;;3.10;0.70;;;38.90;40.10;;;;;;4994682;28;20182;-77
2022/09/01 08:21:53;;;;;;;7.57;0.80;;;39.30;40.00;;;;;;4994532;28;20587;-76
2022/09/01 08:24:25;;;;;;;2.43;0.77;;;39.60;38.50;;;;;;4979291;28;20601;-76
2022/09/01 08:26:51;;;;;;;1.77;0.80;;;39.70;38.20;;;;;;4994632;28;20742;-76
2022/09/01 08:29:17;;;;;;;1.40;0.60;;;39.70;38.10;;;;;;5010419;28;20572;-76
2022/09/01 08:31:45;;;;;;;2.43;0.60;;;40.00;37.60;;;;;;4994479;28;20167;-76
2022/09/01 08:34:11;;;;;;;1.93;0.60;;;40.40;37.60;;;;;;4994413;28;20181;-76
2022/09/01 08:36:38;;;;;;;3.80;0.80;;;40.90;37.30;;;;;;4994435;28;20577;-76
2022/09/01 08:39:05;;;;;;;2.17;0.60;;;41.00;36.10;;;;;;4994041;28;21184;-76
2022/09/01 08:41:34;;;;;;;1.80;0.63;;;41.20;35.40;;;;;;4994051;28;20616;-76
2022/09/01 08:44:18;;;;;;;1.50;0.70;;;41.30;35.30;;;;;;4994460;28;20573;-77
2022/09/01 08:46:44;;;;;;;1.80;0.60;;;41.60;34.70;;;;;;4994187;28;20873;-77
2022/09/01 08:49:24;;;;;;;1.40;0.80;;;42.00;35.10;;;;;;4994101;28;20740;-76
2022/09/01 08:52:23;;;;;;;1.67;0.60;;;42.40;34.70;;;;;;5011919;28;20570;-77
2022/09/01 08:55:04;;;;;;;2.37;0.73;;;42.30;32.60;;;;;;4994517;28;20680;-76
2022/09/01 08:57:43;;;;;;;1.63;0.67;;;42.10;31.90;;;;;;4994350;28;20569;-76
2022/09/01 09:00:22;;;;;;;1.40;0.53;;;42.10;32.50;;;;;;5011771;28;20604;-76
2022/09/01 09:03:15;;;;;;;1.50;0.67;;;42.30;32.40;;;;;;5010759;28;20994;-76
2022/09/01 09:05:56;;;;;;;1.70;0.70;;;42.40;32.10;;;;;;4974247;28;20602;-76
2022/09/01 09:08:46;;;;;;;2.73;0.80;;;42.40;32.20;;;;;;4996678;28;20625;-76
2022/09/01 09:11:15;;;;;;;2.90;0.70;;;42.30;31.20;;;;;;4996647;28;20567;-76
2022/09/01 09:13:59;;;;;;;1.87;0.63;;;42.10;30.50;;;;;;4979154;28;20576;-76
2022/09/01 09:16:30;;;;;;;1.30;0.60;;;42.10;30.10;;;;;;4979423;28;20578;-76
2022/09/01 09:19:00;;;;;;;3.50;0.50;;;42.10;29.90;;;;;;4997098;28;20752;-76
2022/09/01 09:21:37;;;;;;;1.37;0.60;;;42.10;30.40;;;;;;4996341;28;20995;-76
2022/09/01 09:24:28;;;;;;;1.40;0.70;;;42.30;30.00;;;;;;4996677;28;20597;-77
2022/09/01 09:26:57;;;;;;;2.90;0.80;;;42.00;28.90;;;;;;4997830;28;20629;-76
2022/09/01 09:29:25;;;;;;;2.40;0.80;;;41.40;28.60;;;;;;4997293;28;20630;-76
2022/09/01 09:32:05;;;;;;;1.30;0.60;;;41.00;28.40;;;;;;4963113;28;20935;-76
2022/09/01 09:34:37;;;;;;;1.87;0.60;;;40.80;28.20;;;;;;4996572;28;20570;-76
2022/09/01 09:37:23;;;;;;;2.70;0.70;;;40.50;28.60;;;;;;4996136;28;20578;-76
2022/09/01 09:40:08;;;;;;;1.70;0.60;;;40.00;28.50;;;;;;4962234;28;20617;-76
2022/09/01 09:42:38;;;;;;;1.40;0.70;;;39.70;28.60;;;;;;4994004;28;20588;-76
2022/09/01 09:45:26;;;;;;;1.63;0.80;;;39.80;29.30;;;;;;4972084;28;20602;-76
2022/09/01 09:47:54;;;;;;;1.63;0.60;;;40.20;29.70;;;;;;5015291;28;20628;-76
2022/09/01 09:50:32;;;;;;;2.37;0.67;;;40.50;29.30;;;;;;4995016;28;21159;-76
2022/09/01 09:53:10;;;;;;;2.53;0.70;;;41.00;29.60;;;;;;4989273;28;20601;-76
2022/09/01 09:55:50;;;;;;;1.40;0.60;;;41.40;29.20;;;;;;4972629;28;20598;-77
2022/09/01 09:58:16;;;;;;;1.80;0.50;;;41.80;29.50;;;;;;4979010;28;20630;-78
2022/09/01 10:00:59;;;;;;;1.30;0.50;;;42.30;29.00;;;;;;4987156;28;20641;-77
2022/09/01 10:03:48;;;;;;;1.23;0.60;;;42.60;29.10;;;;;;4984890;28;20179;-79
2022/09/01 10:06:29;;;;;;;1.50;0.60;;;42.80;28.40;;;;;;4977629;28;20633;-77
2022/09/01 10:08:55;;;;;;;1.70;0.57;;;42.80;27.50;;;;;;4994690;28;20604;-78
2022/09/01 10:11:29;;;;;;;2.37;0.60;;;42.40;26.90;;;;;;4993164;28;20585;-77
2022/09/01 10:13:55;;;;;;;1.70;0.60;;;42.40;26.00;;;;;;4993539;28;21178;-78
2022/09/01 10:16:33;;;;;;;1.70;0.70;;;42.30;26.60;;;;;;4995632;28;20597;-78
2022/09/01 10:19:01;;;;;;;1.30;0.50;;;42.00;27.10;;;;;;5010412;28;20616;-78
2022/09/01 10:21:34;;;;;;;1.60;0.50;;;42.00;27.30;;;;;;5017207;28;20927;-78
2022/09/01 10:24:05;;;;;;;1.40;0.60;;;41.40;26.10;;;;;;4996669;28;20581;-78
2022/09/01 10:26:36;;;;;;;2.13;0.50;;;40.40;26.20;;;;;;4991833;28;20629;-78
2022/09/01 10:29:21;;;;;;;2.23;0.63;;;39.50;26.40;;;;;;4994697;28;20613;-77
2022/09/01 10:31:47;;;;;;;3.20;0.97;;;38.60;26.40;;;;;;4994856;28;20574;-81
2022/09/01 10:34:18;;;;;;;1.60;0.80;;;37.20;26.30;;;;;;4998471;28;20913;-82
2022/09/01 10:36:45;;;;;;;2.40;0.80;;;36.30;26.90;;;;;;4977213;28;20198;-81
2022/09/01 10:39:13;;;;;;;1.40;0.70;;;35.90;27.60;;;;;;4994005;28;20946;-82
2022/09/01 10:41:43;;;;;;;2.43;0.60;;;35.70;28.00;;;;;;4994350;28;20562;-82
2022/09/01 10:44:22;;;;;;;1.30;0.60;;;35.70;28.30;;;;;;4976688;28;20668;-81
2022/09/01 10:46:50;;;;;;;1.40;0.60;;;35.20;28.10;;;;;;4994420;28;20624;-81
2022/09/01 10:49:45;;;;;;;3.00;0.90;;;35.10;28.80;;;;;;4993646;28;20676;-81
2022/09/01 10:52:41;;;;;;;2.37;0.73;;;35.20;29.20;;;;;;4968619;28;20586;-82
2022/09/01 10:55:14;;;;;;;1.73;0.70;;;35.70;29.70;;;;;;4960677;28;20594;-81
2022/09/01 10:57:49;;;;;;;1.93;0.70;;;36.10;30.00;;;;;;4976858;28;20598;-81
2022/09/01 11:00:18;;;;;;;2.40;0.70;;;36.60;29.70;;;;;;4994075;28;21177;-81
2022/09/01 11:03:10;;;;;;;1.33;0.60;;;37.10;29.70;;;;;;4976577;28;20990;-81
2022/09/01 11:05:57;;;;;;;1.40;0.67;;;37.50;29.40;;;;;;4992914;28;21006;-80
2022/09/01 11:08:32;;;;;;;1.37;0.57;;;38.00;29.10;;;;;;4993024;28;20712;-80
2022/09/01 11:11:11;;;;;;;1.53;0.70;;;38.20;28.60;;;;;;4981427;28;20604;-80
2022/09/01 11:13:44;;;;;;;2.20;0.70;;;38.60;28.60;;;;;;4993759;28;20572;-80
2022/09/01 11:16:36;;;;;;;1.40;0.50;;;38.80;28.20;;;;;;4976451;28;20586;-81
2022/09/01 11:19:27;;;;;;;2.40;0.93;;;38.90;28.10;;;;;;4996221;28;21182;-82
2022/09/01 11:22:38;;;;;;;1.50;0.90;;;38.50;27.30;;;;;;4993340;28;20565;-81
2022/09/01 11:25:32;;;;;;;5.60;1.00;;;38.30;27.80;;;;;;4978251;28;20590;-81
2022/09/01 11:28:52;;;;;;;1.50;0.73;;;38.30;27.90;;;;;;4979959;28;20648;-80
2022/09/01 11:31:50;;;;;;;1.47;0.70;;;38.30;28.20;;;;;;4960027;28;20637;-81
2022/09/01 11:34:22;;;;;;;1.60;0.67;;;38.60;27.90;;;;;;4949267;28;20696;-81
2022/09/01 11:36:59;;;;;;;2.80;0.60;;;38.40;26.80;;;;;;4967847;28;21221;-81
2022/09/01 11:40:02;;;;;;;1.90;0.70;;;37.70;26.60;;;;;;4960907;28;20634;-81
2022/09/01 11:42:33;;;;;;;2.93;0.80;;;36.50;26.60;;;;;;4975869;28;20573;-80
2022/09/01 11:45:11;;;;;;;1.60;0.70;;;35.60;26.70;;;;;;4993137;28;20585;-80
2022/09/01 11:47:43;;;;;;;1.50;0.80;;;34.70;27.40;;;;;;4998078;28;21072;-79
2022/09/01 11:50:34;;;;;;;1.70;0.70;;;33.80;27.50;;;;;;4992967;28;21016;-81
2022/09/01 11:53:04;;;;;;;1.70;1.00;;;33.10;28.10;;;;;;4976594;28;20923;-80
2022/09/01 11:55:37;;;;;;;1.87;0.80;;;32.30;28.60;;;;;;4944293;28;21242;-80
2022/09/01 11:58:29;;;;;;;2.10;1.00;;;31.80;29.40;;;;;;4965563;28;20620;-80
2022/09/01 12:01:39;;;;;;;1.53;0.80;;;31.50;30.00;;;;;;4993416;28;20600;-79
2022/09/01 12:04:26;;;;;;;1.50;0.80;;;31.20;30.40;;;;;;4978598;28;20605;-79
2022/09/01 12:07:22;;;;;;;1.90;0.90;;;30.90;30.70;;;;;;4976477;28;20582;-80
2022/09/01 12:10:09;;;;;;;1.80;0.80;;;30.80;30.60;;;;;;4929537;28;20614;-81
2022/09/01 12:12:41;;;;;;;2.30;1.10;;;30.50;30.60;;;;;;4972687;28;20591;-81
2022/09/01 12:15:21;;;;;;;1.70;0.83;;;30.30;31.20;;;;;;4942728;28;20602;-81
2022/09/01 12:17:47;;;;;;;1.90;0.70;;;30.10;31.70;;;;;;4974179;28;21006;-80
2022/09/01 12:20:19;;;;;;;1.50;0.80;;;30.00;31.50;;;;;;4958297;28;20599;-81
2022/09/01 12:22:45;;;;;;;2.17;0.90;;;29.70;31.60;;;;;;4981558;28;20571;-81
2022/09/01 12:25:26;;;;;;;2.87;0.90;;;29.60;31.70;;;;;;4981438;28;20575;-81
2022/09/01 12:27:53;;;;;;;2.97;0.80;;;29.40;33.50;;;;;;4974229;28;20570;-81
2022/09/01 12:30:20;;;;;;;2.80;0.80;;;29.20;32.90;;;;;;4943545;28;20634;-80
2022/09/01 12:32:46;;;;;;;2.43;0.83;;;29.20;33.90;;;;;;4965553;28;20576;-79
2022/09/01 12:35:21;;;;;;;1.90;1.10;;;29.30;33.80;;;;;;4959794;28;20587;-79
2022/09/01 12:37:47;;;;;;;2.00;1.33;;;29.30;34.00;;;;;;4972940;28;20630;-80
2022/09/01 12:40:32;;;;;;;1.80;0.90;;;29.40;34.30;;;;;;4945793;28;21192;-81
2022/09/01 12:42:58;;;;;;;2.17;0.90;;;29.50;34.30;;;;;;4960205;28;20602;-80
2022/09/01 12:45:42;;;;;;;1.43;0.87;;;29.70;34.30;;;;;;4988089;28;20643;-80
2022/09/01 12:48:30;;;;;;;2.30;1.03;;;29.90;34.60;;;;;;4979221;28;20613;-80
2022/09/01 12:51:23;;;;;;;2.73;0.90;;;30.20;35.60;;;;;;4959541;28;20658;-82
2022/09/01 12:53:58;;;;;;;1.70;0.80;;;30.40;34.60;;;;;;4962639;28;20673;-82
2022/09/01 12:56:34;;;;;;;1.87;1.00;;;30.40;34.50;;;;;;4980496;28;20669;-82
2022/09/01 12:59:09;;;;;;;4.13;0.90;;;30.40;34.20;;;;;;4961047;28;20618;-82
2022/09/01 13:01:37;;;;;;;1.60;0.90;;;30.50;33.90;;;;;;4964881;28;20580;-83
2022/09/01 13:04:26;;;;;;;1.63;0.90;;;30.40;33.70;;;;;;4965200;28;20601;-83
2022/09/01 13:07:06;;;;;;;3.50;1.00;;;30.20;33.30;;;;;;4939835;28;20609;-82
2022/09/01 13:09:33;;;;;;;1.70;0.90;;;29.90;33.80;;;;;;4971042;28;20615;-82
2022/09/01 13:12:28;;;;;;;2.60;1.00;;;29.70;33.60;;;;;;4970975;28;20610;-83
2022/09/01 13:14:54;;;;;;;1.67;1.13;;;29.40;35.30;;;;;;4968383;28;20607;-83
2022/09/01 13:17:23;;;;;;;3.60;1.03;;;29.20;34.30;;;;;;4958763;28;20733;-82
2022/09/01 13:19:49;;;;;;;10.10;1.30;;;29.00;35.30;;;;;;4941637;28;20626;-83